Time;durP1;ratioP1;P1;durP2;ratioP2;P2;SDS_P1;SDS_P2;PMS_P1;PMS_P2;Temp;Humidity;BMP_temperature;BMP_pressure;BME280_temperature;BME280_humidity;BME280_pressure;Samples;Min_cycle;Max_cycle;Signal;HPM_P1;HPM_P2
2020/12/26 17:59:24;;;;;;;2.30;0.80;;;18.80;62.30;;;;;;5076157;28;20384;-50
2020/12/26 18:01:50;;;;;;;2.78;0.70;;;18.90;62.70;;;;;;5057211;28;20071;-48
2020/12/26 18:04:15;;;;;;;;;;;18.70;60.40;;;;;;5052161;28;20025;-48
2020/12/26 18:06:41;;;;;;;1.70;0.73;;;18.50;60.60;;;;;;5059260;28;19912;-48
2020/12/26 18:09:06;;;;;;;;;;;18.30;61.40;;;;;;5060274;28;20251;-48
2020/12/26 18:11:32;;;;;;;2.70;1.00;;;18.20;61.60;;;;;;5049711;28;19987;-48
2020/12/26 18:13:58;;;;;;;2.95;0.90;;;18.10;61.90;;;;;;5059256;28;20028;-48
2020/12/26 18:16:24;;;;;;;3.35;1.10;;;18.10;62.10;;;;;;5052339;28;20029;-48
2020/12/26 18:18:50;;;;;;;4.53;1.42;;;18.10;62.10;;;;;;5060821;28;20079;-47
2020/12/26 18:21:15;;;;;;;;;;;18.10;62.20;;;;;;5056213;28;20493;-47
2020/12/26 18:23:42;;;;;;;1.83;0.80;;;18.10;62.00;;;;;;5049546;28;19959;-47
2020/12/26 18:26:08;;;;;;;2.45;1.00;;;18.10;62.10;;;;;;5058967;28;20037;-48
2020/12/26 18:28:33;;;;;;;2.38;0.93;;;18.20;62.30;;;;;;5060291;28;20025;-48
2020/12/26 18:30:59;;;;;;;;;;;18.20;63.00;;;;;;5056704;28;20082;-47
2020/12/26 18:33:25;;;;;;;2.40;0.80;;;18.20;62.80;;;;;;5050443;28;20274;-48
2020/12/26 18:35:51;;;;;;;1.63;0.80;;;18.20;62.90;;;;;;5057005;28;20470;-47
2020/12/26 18:38:16;;;;;;;1.50;0.88;;;18.20;62.80;;;;;;5063717;28;20044;-49
2020/12/26 18:40:42;;;;;;;2.30;0.90;;;18.20;62.60;;;;;;5065948;28;20028;-49
2020/12/26 18:43:08;;;;;;;3.47;0.80;;;18.20;62.70;;;;;;5052178;28;20024;-48
2020/12/26 18:45:33;;;;;;;;;;;18.20;62.70;;;;;;5062691;28;20104;-48
2020/12/26 18:47:59;;;;;;;2.05;1.35;;;18.20;62.60;;;;;;5060745;28;19915;-48
2020/12/26 18:50:25;;;;;;;2.50;0.80;;;18.20;62.60;;;;;;5058255;28;20036;-48
2020/12/26 18:52:50;;;;;;;;;;;18.30;63.00;;;;;;5050650;28;20729;-48
2020/12/26 18:55:16;;;;;;;2.25;0.80;;;18.30;63.00;;;;;;5056479;28;20007;-48
2020/12/26 18:57:42;;;;;;;2.00;1.23;;;18.30;63.30;;;;;;5063343;28;20072;-48
2020/12/26 19:00:08;;;;;;;3.90;1.13;;;18.30;63.00;;;;;;5048160;28;20021;-47
2020/12/26 19:02:34;;;;;;;3.22;1.38;;;18.30;63.50;;;;;;5047395;28;20032;-47
2020/12/26 19:05:00;;;;;;;6.55;1.40;;;18.30;63.60;;;;;;5059937;28;20060;-47
2020/12/26 19:07:28;;;;;;;3.17;0.90;;;18.40;64.70;;;;;;5057378;28;20044;-48
2020/12/26 19:09:55;;;;;;;6.93;1.52;;;18.40;65.10;;;;;;5051248;28;20028;-48
2020/12/26 19:12:21;;;;;;;2.25;0.95;;;18.50;64.90;;;;;;5048276;28;20485;-47
2020/12/26 19:14:48;;;;;;;3.42;0.95;;;18.40;64.40;;;;;;5050218;28;20083;-47
2020/12/26 19:17:14;;;;;;;3.45;1.20;;;18.40;65.20;;;;;;5040960;28;20036;-48
2020/12/26 19:19:40;;;;;;;2.95;1.00;;;18.50;65.60;;;;;;5035306;28;20479;-49
2020/12/26 19:22:07;;;;;;;4.40;1.35;;;18.50;66.20;;;;;;5042066;28;20481;-49
2020/12/26 19:24:33;;;;;;;2.22;1.10;;;18.50;65.30;;;;;;5044848;28;20115;-50
2020/12/26 19:27:00;;;;;;;2.20;0.90;;;18.50;64.90;;;;;;5046962;28;20470;-49
2020/12/26 19:29:26;;;;;;;2.75;0.70;;;18.50;64.90;;;;;;5037470;28;20380;-49
2020/12/26 19:31:56;;;;;;;2.25;0.90;;;18.60;64.90;;;;;;5032355;28;20018;-49
2020/12/26 19:34:22;;;;;;;2.58;1.27;;;18.60;66.20;;;;;;5033183;28;20455;-50
2020/12/26 19:36:48;;;;;;;2.20;0.80;;;18.60;65.40;;;;;;5043554;28;20040;-49
2020/12/26 19:39:14;;;;;;;1.80;0.77;;;18.60;64.50;;;;;;5038772;28;20086;-49
2020/12/26 19:41:39;;;;;;;;;;;18.60;64.10;;;;;;5037352;28;20360;-49
2020/12/26 19:44:05;;;;;;;1.98;0.77;;;18.60;63.70;;;;;;5036843;28;19912;-49
2020/12/26 19:46:31;;;;;;;2.42;0.80;;;18.60;63.90;;;;;;5036367;28;20033;-50
2020/12/26 19:48:56;;;;;;;3.80;1.20;;;18.60;63.80;;;;;;5037621;28;20021;-50
2020/12/26 19:51:22;;;;;;;2.20;1.20;;;18.60;63.90;;;;;;5033951;28;20036;-49
2020/12/26 19:53:48;;;;;;;1.63;0.60;;;18.60;63.70;;;;;;5033867;28;20025;-49
2020/12/26 19:56:14;;;;;;;4.70;1.20;;;18.60;64.20;;;;;;5033786;28;20490;-49
2020/12/26 19:58:41;;;;;;;3.10;1.13;;;18.60;64.10;;;;;;5051403;28;20044;-49
2020/12/26 20:01:08;;;;;;;3.15;0.70;;;18.70;64.00;;;;;;5043243;28;20035;-49
2020/12/26 20:03:33;;;;;;;3.10;1.00;;;18.60;63.90;;;;;;5040859;28;20129;-49
2020/12/26 20:05:59;;;;;;;2.53;0.80;;;18.60;63.50;;;;;;5038181;28;20451;-49
2020/12/26 20:08:24;;;;;;;;;;;18.70;63.50;;;;;;5038976;28;20044;-50
2020/12/26 20:10:50;;;;;;;3.47;1.10;;;18.70;63.60;;;;;;5051190;28;19904;-49
2020/12/26 20:13:16;;;;;;;1.80;1.17;;;18.70;63.30;;;;;;5045896;28;20039;-50
2020/12/26 20:15:41;;;;;;;3.03;1.25;;;18.70;63.60;;;;;;5042833;28;20037;-50
2020/12/26 20:18:07;;;;;;;3.40;1.23;;;18.80;63.40;;;;;;5042381;28;20045;-50
2020/12/26 20:20:32;;;;;;;8.98;2.50;;;18.80;63.40;;;;;;5045820;28;20437;-49
2020/12/26 20:22:58;;;;;;;7.13;2.22;;;18.80;62.90;;;;;;5037490;28;20034;-49
2020/12/26 20:25:24;;;;;;;3.75;1.55;;;18.80;63.70;;;;;;5037447;28;20035;-50
2020/12/26 20:27:50;;;;;;;4.13;1.38;;;18.80;62.90;;;;;;5035197;28;20115;-49
2020/12/26 20:30:15;;;;;;;4.25;1.15;;;18.80;63.60;;;;;;5039272;28;20093;-50
2020/12/26 20:32:42;;;;;;;4.53;1.27;;;18.80;63.00;;;;;;5042450;28;20393;-50
2020/12/26 20:35:08;;;;;;;3.42;1.05;;;18.80;62.80;;;;;;5044722;28;20089;-50
2020/12/26 20:37:33;;;;;;;7.22;1.80;;;18.80;62.80;;;;;;5034171;28;20104;-49
2020/12/26 20:39:59;;;;;;;3.38;1.10;;;18.80;62.70;;;;;;5035571;28;20025;-50
2020/12/26 20:42:25;;;;;;;3.33;1.20;;;18.80;62.50;;;;;;5040200;28;20448;-50
2020/12/26 20:44:50;;;;;;;5.72;1.10;;;18.80;62.60;;;;;;5038346;28;20466;-49
2020/12/26 20:47:16;;;;;;;7.75;1.40;;;18.80;63.50;;;;;;5030973;28;20033;-50
2020/12/26 20:49:41;;;;;;;;;;;18.90;63.40;;;;;;5043101;28;20029;-49
2020/12/26 20:52:07;;;;;;;6.75;1.77;;;18.70;62.60;;;;;;5033242;28;20251;-49
2020/12/26 20:54:32;;;;;;;8.48;1.65;;;18.70;62.90;;;;;;5042037;28;20021;-49
2020/12/26 20:56:58;;;;;;;;;;;18.80;64.00;;;;;;5032357;28;20032;-49
2020/12/26 20:59:23;;;;;;;2.80;1.00;;;18.80;60.90;;;;;;5043120;28;19916;-49
2020/12/26 21:01:49;;;;;;;3.38;1.30;;;18.80;60.90;;;;;;5038589;28;20091;-49
2020/12/26 21:04:14;;;;;;;;;;;18.70;61.60;;;;;;5042909;28;20040;-49
2020/12/26 21:06:40;;;;;;;9.18;2.13;;;18.70;61.20;;;;;;5035738;28;19905;-49
2020/12/26 21:09:05;;;;;;;;;;;18.70;63.90;;;;;;5038815;28;20055;-53
2020/12/26 21:11:31;;;;;;;10.80;2.22;;;18.70;63.20;;;;;;5037413;28;19932;-49
2020/12/26 21:13:56;;;;;;;;;;;18.80;63.20;;;;;;5038058;28;20033;-49
2020/12/26 21:16:22;;;;;;;8.82;2.03;;;18.70;62.90;;;;;;5030767;28;19917;-50
2020/12/26 21:18:51;;;;;;;6.03;1.42;;;18.70;63.20;;;;;;5041840;28;20040;-49
2020/12/26 21:21:21;;;;;;;7.82;2.25;;;18.70;63.20;;;;;;5033689;28;20037;-56
2020/12/26 21:23:51;;;;;;;7.05;1.17;;;18.70;63.20;;;;;;5038867;28;20509;-50
2020/12/26 21:26:27;;;;;;;4.88;1.35;;;18.70;63.10;;;;;;5033909;28;20091;-50
2020/12/26 21:28:53;;;;;;;7.70;1.48;;;18.60;63.10;;;;;;5040714;28;20021;-49
2020/12/26 21:31:19;;;;;;;4.13;1.08;;;18.60;63.40;;;;;;5033765;28;20330;-49
2020/12/26 21:33:45;;;;;;;4.60;1.48;;;18.60;63.00;;;;;;5044814;28;20275;-49
2020/12/26 21:36:14;;;;;;;4.32;1.05;;;18.60;63.20;;;;;;5031314;28;20061;-49
